98NY weather

Krenzers Airport
West Bloomfield, New York, United States

Public forecast

Using degrees Fahrenheit for public forecast. Weather courtesy of forecast.io.

Closest aviation weather report (METAR) to Krenzers Airport

Closest report is Greater Rochester International Airport, 15.4 nm (28.5 km) NNW. Retrieved 2019/12/14 22:54 UTC (44 minutes ago):

KROC 142254Z COR 29012KT 1 1/2SM -SN BR OVC008 01/M01 A2928 RMK AO2 SFC VIS 2 SLP922 P0004 T00061006

Closest aviation forecast (TAF) to Krenzers Airport

Closest forecast is Greater Rochester International Airport, 15.4 nm (28.5 km) NNW. Retrieved 2019/12/14 18:36 UTC (5 hours ago):

TAF KROC 141735Z 1418/1518 33010KT 2SM -RA BR OVC005 FM142000 30010KT 2SM -RASN BR OVC004 FM142200 28015G21KT 3/4SM -SN BR OVC004 FM150300 27019G27KT 1 1/2SM -SN OVC007 FM150600 27020G30KT P6SM VCSH OVC015 FM151400 27019G34KT P6SM OVC040